• Join FlightAware (Why Join?)
  • Login
  • US Flag 
06:40PM EDT


 

Airport Tracker/Info


-or-


 

Live Flight TrackerFlight Track Log ✈ AWE1056 ✈ 05-May-2013 ✈ MYNN / NAS - KCLT

Flight Track Log - Related Links

Times and Time Zones

All times are in EDT time to prevent confusion due to time zone crossing. See the AWE1056 flight status page for this flight to view local times or setup timezone preferences in your user account.

Time Position Orientation Groundspeed Altitude Reporting Facility
EDT Latitude Longitude Course Direction KTS MPH feet Rate Location/Type
04:40PM 25.0714 -77.5425 309° West 352 405 3,600  Level Miami Center
04:41PM 25.2115 -77.7045 308° West  Level FlightAware Approximate
04:41PM 25.0814 -77.6161 279° West 284 327 5,200  Level Miami Center
04:42PM 25.2810 -77.8025 310° West  Level FlightAware Approximate
04:42PM 25.1272 -77.6667 315° West 274 315 7,800  Level Miami Center
04:43PM 25.3530 -77.8984 310° West  Level FlightAware Approximate
04:43PM 25.2044 -77.7017 338° Northwest 253 291 10,600  Level Miami Center
04:44PM 25.4237 -77.9954 309° West  Level FlightAware Approximate
04:44PM 25.2686 -77.7689 317° Northwest 288 331 11,700  Level Miami Center
04:45PM 25.4940 -78.0928 309° West  Level FlightAware Approximate
04:45PM 25.3308 -77.8544 309° West 325 374 13,800  Level Miami Center
04:46PM 25.3950 -77.9469 308° West 355 409 16,000 2,280 Climbing Miami Center
04:47PM 25.4611 -78.0372 309° West 377 434 18,400 2,160 Climbing Miami Center
04:48PM 25.5294 -78.1322 309° West 382 440 20,400 1,860 Climbing Miami Center
04:49PM 25.5994 -78.2300 308° West 389 448 22,200 1,620 Climbing Miami Center
04:50PM 25.6717 -78.3322 308° West 406 467 23,700 1,380 Climbing Miami Center
04:51PM 25.7311 -78.4389 302° West 412 474 25,000 1,020 Climbing Miami Center
04:52PM 25.7317 -78.5706 270° West 402 463 25,800 1,380 Climbing Miami Center
04:53PM 25.7408 -78.6953 275° West 407 468 27,800 2,100 Climbing Miami Center
04:54PM 25.7433 -78.8153 271° West 407 468 30,000 1,740 Climbing Miami Center
04:55PM 25.7542 -78.9306 276° West 400 460 31,300 960 Climbing Miami Center
04:56PM 25.7547 -79.0436 270° West 387 445 32,000 300 Climbing Miami Center
04:57PM 25.7592 -79.1614 272° West 382 440 32,000  Level Miami Center
04:58PM 25.7592 -79.2883 270° West 382 440 32,000  Level Miami Center
04:59PM 25.7636 -79.4083 272° West 382 440 32,000  Level Miami Center
05:00PM 25.7992 -79.5175 290° West 382 440 32,000  Level Miami Center
05:01PM 25.8456 -79.6156 298° West 387 445 32,000  Level Miami Center
05:03PM 25.9197 -79.8023 293° West  Level FlightAware Approximate
05:03PM 25.9353 -79.8347 293° West 393 452 32,000  Level Miami Center
05:04PM 25.9789 -79.9422 294° West 393 452 32,000  Level Miami Center
05:05PM 26.0247 -80.0475 296° West 388 447 32,000  Level Miami Center
05:06PM 26.0725 -80.1575 296° West 382 440 32,000  Level Miami Center
05:07PM 26.1753 -80.2206 331° Northwest 383 441 32,000  Level Miami Center
05:08PM 26.2847 -80.2744 336° Northwest 412 474 32,000  Level Miami Center
05:09PM 26.4025 -80.3336 336° Northwest 424 488 32,000 300 Level Miami Center
05:10PM 26.5119 -80.3878 336° Northwest 424 488 32,700 480 Climbing Miami Center
05:11PM 26.6214 -80.4400 337° Northwest 424 488 33,000 120 Climbing Miami Center
05:12PM 26.7328 -80.4897 338° Northwest 430 495 33,000  Level Miami Center
05:13PM 26.8422 -80.5444 336° Northwest 435 501 33,000  Level Miami Center
05:14PM 26.9558 -80.5947 338° Northwest 430 495 33,000  Level Miami Center
05:15PM 27.0650 -80.6447 338° Northwest 430 495 33,000  Level Miami Center
05:16PM 27.1764 -80.6975 337° Northwest 430 495 33,000  Level Miami Center
05:17PM 27.2858 -80.7456 339° North 430 495 33,000  Level Miami Center
05:18PM 27.3867 -80.7956 336° Northwest 422 486 33,000  Level Miami Center
05:19PM 27.5003 -80.8439 339° North 422 486 33,000  Level Miami Center
05:20PM 27.6094 -80.8947 338° Northwest 422 486 33,000  Level Miami Center
05:21PM 27.7206 -80.9478 337° Northwest 422 486 33,000  Level Miami Center
05:22PM 27.8297 -80.9986 338° Northwest 422 486 33,000  Level Miami Center
05:23PM 27.9389 -81.0497 338° Northwest 422 486 33,000  Level Miami Center
05:24PM 28.0461 -81.1006 337° Northwest 422 486 33,000  Level Miami Center
05:26PM 28.2444 -81.1514 347° North 432 497 33,000  Level Jacksonville Center
05:27PM 28.3658 -81.1728 351° North 437 503 33,000  Level Jacksonville Center
05:28PM 28.4872 -81.1944 351° North 437 503 33,000  Level Jacksonville Center
05:29PM 28.6064 -81.2161 351° North 431 496 33,000  Level Jacksonville Center
05:30PM 28.7256 -81.2353 352° North 431 496 33,000  Level Jacksonville Center
05:32PM 28.9419 -81.2600 354° North  Level FlightAware Approximate
05:33PM 29.0875 -81.2958 354° North 425 489 33,000  Level Jacksonville Center
05:34PM 29.2067 -81.3153 352° North 430 495 33,000  Level Jacksonville Center
05:35PM 29.3281 -81.3347 352° North 430 495 33,000  Level Jacksonville Center
05:36PM 29.4533 -81.3425 357° North 435 501 33,000  Level Jacksonville Center
05:37PM 29.5744 -81.3500 357° North 435 501 33,000  Level Jacksonville Center
05:38PM 29.6997 -81.3553 358° North 441 507 33,000  Level Jacksonville Center
05:39PM 29.8272 -81.3603 358° North 441 507 33,000  Level Jacksonville Center
05:40PM 29.9506 -81.3681 357° North 441 507 33,000  Level Jacksonville Center
05:41PM 30.0758 -81.3731 358° North 446 513 33,000  Level Jacksonville Center
05:42PM 30.2011 -81.3808 357° North 446 513 33,000  Level Jacksonville Center
05:43PM 30.3286 -81.3883 357° North 446 513 33,000  Level Jacksonville Center
05:44PM 30.4539 -81.3936 358° North 446 513 33,000  Level Jacksonville Center
05:45PM 30.5836 -81.4014 357° North 451 519 33,000  Level Jacksonville Center
05:46PM 30.7089 -81.4067 358° North 451 519 33,000  Level Jacksonville Center
05:47PM 30.8364 -81.4142 357° North 451 519 33,000  Level Jacksonville Center
05:48PM 30.9678 -81.4219 357° North 462 532 33,000  Level Jacksonville Center
05:49PM 31.0975 -81.4319 356° North 462 532 33,000  Level Jacksonville Center
05:50PM 31.2250 -81.4397 357° North 455 524 33,000  Level Jacksonville Center
05:51PM 31.3561 -81.4133 10° North 469 540 33,000  Level Jacksonville Center
05:52PM 31.4706 -81.3800 14° North 469 540 33,000  Level Jacksonville Center
05:53PM 31.6122 -81.3433 12° North 474 545 33,000  Level Jacksonville Center
05:54PM 31.7286 -81.3122 13° North 467 537 33,000  Level Jacksonville Center
05:55PM 31.8722 -81.2731 13° North 472 543 33,000  Level Jacksonville Center
05:56PM 31.9889 -81.2442 12° North 472 543 33,000  Level Jacksonville Center
05:58PM 32.2381 -81.1414 19° North 472 543 33,000  Level Jacksonville Center
06:00PM 32.4292 -81.0101 30° Northeast  Level FlightAware Approximate
06:02PM 32.7111 -80.8236 30° Northeast 477 549 33,000  Level Jacksonville Center
06:03PM 32.8289 -80.7467 29° Northeast 477 549 33,000  Level Jacksonville Center
06:04PM 32.9444 -80.6672 30° Northeast 477 549 33,000  Level Jacksonville Center
06:05PM 33.0642 -80.5875 29° Northeast 477 549 33,000  Level Jacksonville Center
06:06PM 33.1817 -80.5100 29° Northeast 482 555 33,000  Level Jacksonville Center
06:07PM 33.1149 -80.5346 30° Northeast  Level FlightAware Approximate
06:07PM 33.3011 -80.4272 30° Northeast 482 555 33,000  Level Jacksonville Center
06:08PM 33.4183 -80.3494 29° Northeast 482 555 32,100 -2,280 Descending Jacksonville Center
06:09PM 33.5400 -80.2661 30° Northeast 482 555 28,500 -3,600 Descending Jacksonville Center
06:10PM 33.6592 -80.1853 29° Northeast 482 555 24,900 -2,700 Descending Jacksonville Center
06:11PM 33.7789 -80.1167 25° Northeast 482 555 23,200 -1,080 Descending Jacksonville Center
06:12PM 33.9003 -80.1378 352° North 434 499 22,800 -120 Descending Jacksonville Center
06:13PM 34.0239 -80.1689 348° North 434 499 23,000 -780 Climbing Jacksonville Center
06:14PM 34.1414 -80.1978 348° North 434 499 21,300 -2,040 Descending Jacksonville Center
06:15PM 34.2547 -80.2269 348° North 429 494 19,000 -2,400 Descending Jacksonville Center
06:16PM 34.3658 -80.2514 350° North 412 474 16,500 -2,400 Descending Jacksonville Center
06:17PM 34.4708 -80.2858 345° North 399 459 14,200 -2,220 Descending Jacksonville Center
06:18PM 34.5758 -80.3131 348° North 393 452 12,100 -1,680 Descending Jacksonville Center
06:19PM 34.6797 -80.3358 350° North 373 429 11,000 -540 Descending Atlanta Center
06:20PM 34.7636 -80.4206 320° Northwest 311 358 11,000 -720 Level Atlanta Center
06:21PM 34.7950 -80.5003 296° West 306 352 9,600 -1,620 Descending Atlanta Center
06:22PM 34.8250 -80.5975 291° West 312 359 8,100 -1,740 Descending Atlanta Center
06:23PM 34.8550 -80.7003 290° West 300 345 6,000 -1,680 Descending Atlanta Center
06:24PM 34.8700 -80.7958 281° West 310 357 4,800 -900 Descending Atlanta Center
06:25PM 34.8597 -80.8847 262° West 244 281 4,300 -420 Descending Atlanta Center
06:26PM 34.9047 -80.9236 325° Northwest 196 226 4,000 -180 Descending Atlanta Center
06:27PM 34.9586 -80.9164 North 194 223 4,000  Level Atlanta Center
06:28PM 35.0153 -80.9219 355° North 214 246 4,000 -420 Level Atlanta Center
06:29PM 35.0736 -80.9247 358° North 214 246 3,200 -900 Descending Atlanta Center
06:30PM 35.1303 -80.9303 355° North 202 232 2,200 -900 Descending Atlanta Center
06:31PM 35.1700 -80.9339 356° North 139 160 1,400 -840 Descending Atlanta Center